Time;durP1;ratioP1;P1;durP2;ratioP2;P2;SDS_P1;SDS_P2;PMS_P1;PMS_P2;Temp;Humidity;BMP_temperature;BMP_pressure;BME280_temperature;BME280_humidity;BME280_pressure;Samples;Min_cycle;Max_cycle;Signal;HPM_P1;HPM_P2
2024/02/27 00:02:16;;;;;;;13.97;6.83;;;7.80;99.90;;;;;;5009126;28;20046;-68
2024/02/27 00:04:42;;;;;;;12.53;6.57;;;7.70;99.90;;;;;;5009783;28;20034;-70
2024/02/27 00:07:08;;;;;;;14.20;7.60;;;7.60;99.90;;;;;;5006160;28;20661;-70
2024/02/27 00:09:33;;;;;;;17.90;7.85;;;7.60;99.90;;;;;;5008882;28;20033;-66
2024/02/27 00:11:59;;;;;;;20.23;6.93;;;7.60;99.90;;;;;;5009350;28;20045;-65
2024/02/27 00:14:25;;;;;;;11.85;6.53;;;7.60;99.90;;;;;;5009249;28;20522;-70
2024/02/27 00:16:51;;;;;;;16.23;6.20;;;7.70;99.90;;;;;;5007843;28;20493;-67
2024/02/27 00:19:16;;;;;;;12.13;6.25;;;7.70;99.90;;;;;;5009041;28;20284;-67
2024/02/27 00:21:42;;;;;;;13.27;6.07;;;7.60;99.90;;;;;;5008951;28;20549;-67
2024/02/27 00:24:08;;;;;;;12.57;5.77;;;7.60;99.90;;;;;;5008796;28;20034;-68
2024/02/27 00:26:33;;;;;;;14.37;6.63;;;7.40;99.90;;;;;;5008707;28;20018;-65
2024/02/27 00:28:59;;;;;;;13.70;6.43;;;7.40;99.90;;;;;;5003159;28;20030;-69
2024/02/27 00:31:25;;;;;;;15.90;6.95;;;7.40;99.90;;;;;;4989139;28;20050;-69
2024/02/27 00:33:50;;;;;;;13.80;6.83;;;7.40;99.90;;;;;;4989564;28;20102;-68
2024/02/27 00:36:16;;;;;;;10.17;5.50;;;7.40;99.90;;;;;;4989389;28;20113;-66
2024/02/27 00:38:41;;;;;;;15.90;6.43;;;7.30;99.90;;;;;;4989163;28;20497;-69
2024/02/27 00:41:07;;;;;;;12.10;6.47;;;7.30;99.90;;;;;;4988697;28;20120;-68
2024/02/27 00:43:33;;;;;;;16.23;7.80;;;7.20;99.90;;;;;;4987613;28;20034;-69
2024/02/27 00:45:59;;;;;;;22.70;7.73;;;7.10;99.90;;;;;;4988781;28;20360;-65
2024/02/27 00:48:24;;;;;;;14.63;7.40;;;7.20;99.90;;;;;;4988622;28;20280;-66
2024/02/27 00:50:50;;;;;;;14.87;6.83;;;7.20;99.90;;;;;;4988697;28;20030;-65
2024/02/27 00:53:16;;;;;;;15.23;6.87;;;7.20;99.90;;;;;;4989714;28;20030;-72
2024/02/27 00:55:42;;;;;;;;;;;7.20;99.90;;;;;;5008784;28;20509;-67
2024/02/27 00:58:10;;;;;;;13.80;6.28;;;7.10;99.90;;;;;;5008599;28;19912;-66
2024/02/27 01:00:36;;;;;;;16.25;6.88;;;7.10;99.90;;;;;;5008695;28;20104;-68
2024/02/27 01:03:01;;;;;;;21.27;7.70;;;7.10;99.90;;;;;;5008483;28;20113;-67
2024/02/27 01:05:27;;;;;;;16.92;7.85;;;7.10;99.90;;;;;;5007159;28;20470;-66
2024/02/27 01:07:53;;;;;;;16.50;6.60;;;7.20;99.90;;;;;;5008460;28;20056;-72
2024/02/27 01:10:18;;;;;;;14.70;6.40;;;7.20;99.90;;;;;;5009124;28;20085;-70
2024/02/27 01:12:44;;;;;;;13.17;6.63;;;7.30;99.90;;;;;;5008546;28;20037;-67
2024/02/27 01:15:09;;;;;;;17.20;6.93;;;7.30;99.90;;;;;;5008378;28;20518;-67
2024/02/27 01:17:35;;;;;;;16.90;7.70;;;7.30;99.90;;;;;;5004956;28;20033;-66
2024/02/27 01:20:01;;;;;;;22.30;7.57;;;7.30;99.90;;;;;;4988081;28;20046;-66
2024/02/27 01:22:27;;;;;;;20.67;7.57;;;7.30;99.90;;;;;;4988823;28;20030;-66
2024/02/27 01:24:56;;;;;;;16.45;7.50;;;7.30;99.90;;;;;;4987779;28;20118;-70
2024/02/27 01:27:23;;;;;;;13.48;7.03;;;7.30;99.90;;;;;;4988159;28;20045;-67
2024/02/27 01:29:53;;;;;;;19.20;6.60;;;7.30;99.90;;;;;;4987937;28;20100;-69
2024/02/27 01:32:19;;;;;;;18.42;6.40;;;7.20;99.90;;;;;;4988118;28;20077;-69
2024/02/27 01:34:45;;;;;;;13.30;5.95;;;7.20;99.90;;;;;;4987980;28;20062;-68
2024/02/27 01:37:11;;;;;;;18.75;6.68;;;7.20;99.90;;;;;;4987761;28;20042;-68
2024/02/27 01:39:37;;;;;;;17.27;7.23;;;7.20;99.90;;;;;;4987555;28;20497;-69
2024/02/27 01:42:03;;;;;;;16.13;7.43;;;7.20;99.90;;;;;;4987556;28;20036;-67
2024/02/27 01:44:29;;;;;;;15.98;6.50;;;7.30;99.90;;;;;;4988149;28;20441;-68
2024/02/27 01:46:56;;;;;;;12.75;6.20;;;7.40;99.90;;;;;;4988310;28;20033;-68
2024/02/27 01:49:22;;;;;;;11.77;6.15;;;7.40;99.90;;;;;;4986757;28;20037;-67
2024/02/27 01:51:48;;;;;;;13.03;6.77;;;7.40;99.90;;;;;;4987642;28;20402;-65
2024/02/27 01:54:15;;;;;;;;;;;7.30;99.90;;;;;;4988041;28;20650;-67
2024/02/27 01:56:42;;;;;;;15.10;6.90;;;7.30;99.90;;;;;;4987534;28;19905;-67
2024/02/27 01:59:10;;;;;;;18.98;8.48;;;7.40;99.90;;;;;;4987033;28;20038;-68
2024/02/27 02:01:36;;;;;;;11.88;6.93;;;7.40;99.90;;;;;;4987602;28;20376;-69
2024/02/27 02:04:02;;;;;;;14.40;6.35;;;7.30;99.90;;;;;;4987877;28;20029;-69
2024/02/27 02:06:28;;;;;;;18.10;6.80;;;7.40;99.90;;;;;;4987716;28;20034;-70
2024/02/27 02:08:54;;;;;;;14.18;6.97;;;7.30;99.90;;;;;;4987191;28;20029;-69
2024/02/27 02:11:20;;;;;;;12.70;6.37;;;7.30;99.90;;;;;;4987186;28;20214;-71
2024/02/27 02:13:47;;;;;;;15.15;6.90;;;7.20;99.90;;;;;;4987939;28;20045;-72
2024/02/27 02:16:12;;;;;;;18.92;8.57;;;7.20;99.90;;;;;;4988010;28;20030;-68
2024/02/27 02:18:38;;;;;;;14.63;6.90;;;7.20;99.90;;;;;;4988240;28;20388;-67
2024/02/27 02:21:04;;;;;;;16.40;7.00;;;7.10;99.90;;;;;;4988103;28;20030;-65
2024/02/27 02:23:29;;;;;;;16.38;6.85;;;7.10;99.90;;;;;;4985292;28;20511;-68
2024/02/27 02:25:58;;;;;;;14.07;7.00;;;7.10;99.90;;;;;;4988088;28;20090;-67
2024/02/27 02:28:24;;;;;;;13.45;6.50;;;7.10;99.90;;;;;;4970480;28;20110;-68
2024/02/27 02:30:49;;;;;;;14.57;6.07;;;7.00;99.90;;;;;;4987772;28;20500;-70
2024/02/27 02:33:15;;;;;;;16.73;6.33;;;7.00;99.90;;;;;;4987616;28;20046;-69
2024/02/27 02:35:44;;;;;;;15.17;6.50;;;7.00;99.90;;;;;;4970517;28;20394;-65
2024/02/27 02:38:10;;;;;;;14.27;6.38;;;6.90;99.90;;;;;;4987794;28;20032;-68
2024/02/27 02:40:35;;;;;;;14.50;6.70;;;6.90;99.90;;;;;;4993082;28;20037;-73
2024/02/27 02:43:01;;;;;;;12.40;6.80;;;6.90;99.90;;;;;;5007989;28;20057;-73
2024/02/27 02:45:27;;;;;;;15.07;6.47;;;6.90;99.90;;;;;;5007272;28;20502;-73
2024/02/27 02:47:53;;;;;;;13.20;6.57;;;6.90;99.90;;;;;;5007959;28;20042;-73
2024/02/27 02:50:18;;;;;;;18.40;6.53;;;6.90;99.90;;;;;;5007137;28;20033;-72
2024/02/27 02:52:44;;;;;;;16.23;7.03;;;6.80;99.90;;;;;;5007582;28;20061;-66
2024/02/27 02:55:10;;;;;;;12.87;6.73;;;6.80;99.90;;;;;;4991778;28;20096;-65
2024/02/27 02:57:36;;;;;;;18.10;7.57;;;6.80;99.90;;;;;;4991817;28;20305;-70
2024/02/27 03:00:04;;;;;;;18.13;8.02;;;6.70;99.90;;;;;;4990391;28;20031;-65
2024/02/27 03:02:30;;;;;;;15.32;8.10;;;6.60;99.90;;;;;;4992194;28;20046;-69
2024/02/27 03:04:57;;;;;;;12.60;7.10;;;6.60;99.90;;;;;;4991297;28;20033;-72
2024/02/27 03:07:22;;;;;;;19.60;7.40;;;6.70;99.90;;;;;;4991184;28;20023;-65
2024/02/27 03:09:48;;;;;;;13.40;7.50;;;6.70;99.90;;;;;;4990437;28;20038;-66
2024/02/27 03:12:13;;;;;;;11.07;6.90;;;6.70;99.90;;;;;;4990359;28;20129;-67
2024/02/27 03:14:45;;;;;;;21.27;10.13;;;6.70;99.90;;;;;;4990646;28;20027;-66
2024/02/27 03:17:15;;;;;;;17.65;7.50;;;6.70;99.90;;;;;;4990418;28;20508;-71
2024/02/27 03:19:42;;;;;;;17.88;7.00;;;6.60;99.90;;;;;;4990470;28;20525;-70
2024/02/27 03:22:09;;;;;;;;;;;6.60;99.90;;;;;;4990965;28;20057;-72
2024/02/27 03:24:35;;;;;;;13.52;7.35;;;6.60;99.90;;;;;;4990880;28;20368;-71
2024/02/27 03:27:01;;;;;;;17.77;7.45;;;6.50;99.90;;;;;;4992314;28;20453;-68
2024/02/27 03:29:26;;;;;;;15.77;7.50;;;6.60;99.90;;;;;;4990253;28;20027;-69
2024/02/27 03:31:52;;;;;;;16.27;7.30;;;6.50;99.90;;;;;;4990433;28;20037;-72
2024/02/27 03:34:19;;;;;;;18.87;7.70;;;6.60;99.90;;;;;;4998775;28;20026;-68
2024/02/27 03:36:44;;;;;;;19.58;9.35;;;6.60;99.90;;;;;;5005720;28;20034;-73
2024/02/27 03:39:13;;;;;;;14.13;7.93;;;6.60;99.90;;;;;;5004532;28;20033;-71
2024/02/27 03:41:39;;;;;;;15.23;7.75;;;6.60;99.90;;;;;;5001443;28;20045;-73
2024/02/27 03:44:04;;;;;;;18.27;7.83;;;6.60;99.90;;;;;;4993946;28;20026;-72
2024/02/27 03:46:30;;;;;;;14.87;7.80;;;6.70;99.90;;;;;;4995973;28;20406;-66
2024/02/27 03:48:55;;;;;;;16.80;6.85;;;6.60;99.90;;;;;;4998576;28;20068;-66
2024/02/27 03:51:21;;;;;;;16.13;7.47;;;6.70;99.90;;;;;;4998540;28;20106;-65
2024/02/27 03:53:48;;;;;;;17.83;8.25;;;6.70;99.90;;;;;;4999698;28;20131;-69
2024/02/27 03:56:14;;;;;;;13.45;6.88;;;6.70;99.90;;;;;;4995228;28;20026;-65
2024/02/27 03:58:40;;;;;;;15.95;7.45;;;6.70;99.90;;;;;;5009363;28;20045;-65
2024/02/27 04:01:06;;;;;;;12.77;7.97;;;6.70;99.90;;;;;;5000001;28;20413;-67
2024/02/27 04:03:32;;;;;;;17.15;7.85;;;6.70;99.90;;;;;;4999178;28;20034;-70
2024/02/27 04:05:57;;;;;;;14.27;7.90;;;6.70;99.90;;;;;;4989100;28;20065;-67
2024/02/27 04:08:23;;;;;;;16.77;8.37;;;6.70;99.90;;;;;;4996592;28;20465;-66
2024/02/27 04:10:48;;;;;;;15.47;8.03;;;6.70;99.90;;;;;;5001987;28;20485;-66
2024/02/27 04:13:14;;;;;;;13.03;8.13;;;6.70;99.90;;;;;;4988618;28;20125;-69
2024/02/27 04:15:41;;;;;;;15.07;9.13;;;6.70;99.90;;;;;;5000095;28;20034;-71
2024/02/27 04:18:07;;;;;;;;;;;6.70;99.90;;;;;;4996365;28;20045;-69
2024/02/27 04:20:33;;;;;;;18.15;8.18;;;6.70;99.90;;;;;;4999267;28;19975;-72
2024/02/27 04:22:58;;;;;;;16.80;7.93;;;6.70;99.90;;;;;;4997881;28;20037;-72
2024/02/27 04:25:24;;;;;;;17.92;7.63;;;6.70;99.90;;;;;;4997491;28;20085;-71
2024/02/27 04:27:50;;;;;;;15.47;7.53;;;6.70;99.90;;;;;;5001470;28;20034;-71
2024/02/27 04:30:15;;;;;;;12.00;6.87;;;6.70;99.90;;;;;;4997105;28;20026;-65
2024/02/27 04:32:41;;;;;;;14.80;7.38;;;6.70;99.90;;;;;;5003858;28;20034;-65
2024/02/27 04:35:07;;;;;;;13.03;7.20;;;6.70;99.90;;;;;;4997421;28;20402;-67
2024/02/27 04:37:33;;;;;;;12.35;7.43;;;6.70;99.90;;;;;;4995644;28;20030;-68
2024/02/27 04:39:58;;;;;;;19.93;9.80;;;6.70;99.90;;;;;;4997819;28;20521;-69
2024/02/27 04:42:24;;;;;;;13.70;8.67;;;6.70;99.90;;;;;;4996960;28;20758;-68
2024/02/27 04:44:49;;;;;;;15.10;7.43;;;6.70;99.90;;;;;;4998883;28;20074;-67
2024/02/27 04:47:15;;;;;;;21.13;6.80;;;6.70;99.90;;;;;;5000066;28;20460;-65
2024/02/27 04:49:41;;;;;;;11.25;7.53;;;6.70;99.90;;;;;;4998989;28;20033;-66
2024/02/27 04:52:07;;;;;;;15.80;6.43;;;6.70;99.90;;;;;;4999460;28;20037;-66
2024/02/27 04:54:35;;;;;;;11.93;6.72;;;6.70;99.90;;;;;;5001811;28;20045;-65
2024/02/27 04:57:00;;;;;;;11.32;7.13;;;6.70;99.90;;;;;;4997921;28;20482;-65
2024/02/27 04:59:26;;;;;;;12.00;6.83;;;6.60;99.90;;;;;;4997297;28;20065;-65
2024/02/27 05:01:51;;;;;;;13.50;7.30;;;6.60;99.90;;;;;;4997077;28;20037;-65
2024/02/27 05:04:17;;;;;;;10.13;6.40;;;6.60;99.90;;;;;;4998107;28;20105;-66
2024/02/27 05:06:43;;;;;;;14.57;6.57;;;6.60;99.90;;;;;;4998838;28;20037;-65
2024/02/27 05:09:09;;;;;;;9.77;6.80;;;6.60;99.90;;;;;;5001162;28;20026;-66
2024/02/27 05:11:34;;;;;;;;;;;6.60;99.90;;;;;;4996307;28;20455;-65
2024/02/27 05:14:00;;;;;;;14.82;6.97;;;6.60;99.90;;;;;;4998417;28;19960;-66
2024/02/27 05:16:26;;;;;;;13.47;7.30;;;6.50;99.90;;;;;;5000468;28;20061;-65
2024/02/27 05:18:51;;;;;;;11.83;6.83;;;6.50;99.90;;;;;;4996846;28;20719;-67
2024/02/27 05:21:21;;;;;;;13.27;6.83;;;6.50;99.90;;;;;;4999444;28;20033;-65
2024/02/27 05:23:47;;;;;;;10.20;6.13;;;6.50;99.90;;;;;;4995023;28;20034;-66
2024/02/27 05:26:14;;;;;;;10.00;5.97;;;6.60;99.90;;;;;;4999830;28;20048;-67
2024/02/27 05:28:40;;;;;;;15.18;5.40;;;6.50;99.90;;;;;;5000448;28;20052;-69
2024/02/27 05:31:25;;;;;;;9.20;5.90;;;6.60;99.90;;;;;;5001586;28;20029;-66
2024/02/27 05:33:55;;;;;;;14.38;5.30;;;6.60;99.90;;;;;;4995790;28;20066;-65
2024/02/27 05:36:21;;;;;;;9.45;5.22;;;6.60;99.90;;;;;;4999941;28;20135;-65
2024/02/27 05:38:47;;;;;;;8.90;5.32;;;6.70;99.90;;;;;;4999282;28;20445;-66
2024/02/27 05:41:13;;;;;;;9.85;5.53;;;6.70;99.90;;;;;;5004620;28;20088;-65
2024/02/27 05:43:39;;;;;;;7.85;5.15;;;6.70;99.90;;;;;;4998527;28;20217;-67
2024/02/27 05:46:05;;;;;;;8.63;5.13;;;6.70;99.90;;;;;;5014237;28;20068;-65
2024/02/27 05:48:38;;;;;;;9.13;5.30;;;6.70;99.90;;;;;;5005765;28;20025;-65
2024/02/27 05:51:04;;;;;;;11.05;4.57;;;6.70;99.90;;;;;;4997575;28;20029;-71
2024/02/27 05:53:31;;;;;;;9.98;5.10;;;6.80;99.90;;;;;;4994304;28;20061;-65
2024/02/27 05:55:57;;;;;;;15.00;5.40;;;6.80;99.90;;;;;;5004079;28;20657;-64
2024/02/27 05:58:24;;;;;;;7.68;4.25;;;6.80;99.90;;;;;;4994401;28;20034;-70
2024/02/27 06:00:51;;;;;;;9.90;5.22;;;6.90;99.90;;;;;;4996145;28;20057;-65
2024/02/27 06:03:20;;;;;;;8.48;5.03;;;6.90;99.90;;;;;;4997055;28;20405;-70
2024/02/27 06:05:46;;;;;;;7.20;4.50;;;6.90;99.90;;;;;;5001160;28;20044;-66
2024/02/27 06:08:15;;;;;;;9.93;4.60;;;6.90;99.90;;;;;;5009230;28;20642;-66
2024/02/27 06:10:41;;;;;;;8.30;5.18;;;6.90;99.90;;;;;;5006302;28;20025;-74
2024/02/27 06:13:10;;;;;;;8.40;5.60;;;6.90;99.90;;;;;;5001515;28;20042;-69
2024/02/27 06:15:36;;;;;;;7.85;5.20;;;6.90;99.90;;;;;;4995634;28;20261;-69
2024/02/27 06:18:03;;;;;;;13.85;6.43;;;6.90;99.90;;;;;;4994996;28;20031;-69
2024/02/27 06:23:13;;;;;;;10.25;4.97;;;6.90;99.90;;;;;;4993364;28;20045;-70
2024/02/27 06:25:39;;;;;;;9.07;5.40;;;6.90;99.90;;;;;;5000773;28;20026;-72
2024/02/27 06:28:05;;;;;;;8.67;5.87;;;7.00;99.90;;;;;;5000708;28;20030;-71
2024/02/27 06:30:31;;;;;;;12.00;5.53;;;7.00;99.90;;;;;;5006487;28;20049;-66
2024/02/27 06:32:56;;;;;;;9.82;6.53;;;7.10;99.90;;;;;;5002534;28;20494;-66
2024/02/27 06:35:24;;;;;;;7.53;5.57;;;7.10;99.90;;;;;;5009427;28;20032;-65
2024/02/27 06:37:49;;;;;;;8.95;5.28;;;7.10;99.90;;;;;;4997287;28;20120;-65
2024/02/27 06:40:16;;;;;;;10.05;5.85;;;7.10;99.90;;;;;;4999758;28;20061;-65
2024/02/27 06:42:42;;;;;;;;;;;7.10;99.90;;;;;;4997670;28;20033;-65
2024/02/27 06:45:10;;;;;;;11.32;6.05;;;7.10;99.90;;;;;;4999855;28;19933;-66
2024/02/27 06:47:42;;;;;;;8.43;5.72;;;7.10;99.90;;;;;;5003374;28;20029;-68
2024/02/27 06:50:12;;;;;;;10.57;6.93;;;7.10;99.90;;;;;;5000919;28;20029;-68
2024/02/27 06:52:38;;;;;;;12.48;6.70;;;7.10;99.90;;;;;;5000025;28;20040;-69
2024/02/27 06:55:05;;;;;;;11.90;7.10;;;7.10;99.90;;;;;;4999883;28;20026;-67
2024/02/27 06:57:34;;;;;;;12.07;7.82;;;7.10;99.90;;;;;;4999568;28;20038;-68
2024/02/27 07:00:00;;;;;;;13.23;7.40;;;7.20;99.90;;;;;;4997189;28;20160;-67
2024/02/27 07:02:27;;;;;;;11.27;8.38;;;7.20;99.90;;;;;;5000778;28;20133;-68
2024/02/27 07:04:53;;;;;;;17.00;9.18;;;7.30;99.90;;;;;;4996697;28;20042;-65
2024/02/27 07:07:18;;;;;;;15.82;8.77;;;7.30;99.90;;;;;;5003741;28;20038;-66
2024/02/27 07:09:44;;;;;;;14.40;8.57;;;7.30;99.90;;;;;;4998801;28;20038;-66
2024/02/27 07:12:10;;;;;;;15.77;9.17;;;7.30;99.90;;;;;;4999358;28;20035;-65
2024/02/27 07:14:42;;;;;;;16.48;9.07;;;7.40;99.90;;;;;;5000849;28;20045;-66
2024/02/27 07:17:09;;;;;;;13.45;8.10;;;7.40;99.90;;;;;;5001120;28;20026;-66
2024/02/27 07:19:35;;;;;;;13.35;8.50;;;7.40;99.90;;;;;;5003843;28;20030;-65
2024/02/27 07:22:01;;;;;;;17.92;9.38;;;7.50;99.90;;;;;;5000294;28;20038;-73
2024/02/27 07:24:27;;;;;;;15.25;8.35;;;7.40;99.90;;;;;;5000405;28;20046;-66
2024/02/27 07:26:52;;;;;;;12.67;7.77;;;7.50;99.90;;;;;;5000894;28;20462;-66
2024/02/27 07:29:18;;;;;;;11.83;7.60;;;7.50;99.90;;;;;;5000231;28;20061;-67
2024/02/27 07:31:45;;;;;;;17.30;9.47;;;7.50;99.90;;;;;;4998685;28;20046;-67
2024/02/27 07:34:12;;;;;;;16.73;10.43;;;7.50;99.90;;;;;;4999496;28;20056;-71
2024/02/27 07:36:37;;;;;;;18.35;10.27;;;7.50;99.90;;;;;;4994011;28;20038;-69
2024/02/27 07:39:03;;;;;;;16.37;10.37;;;7.50;99.90;;;;;;5002657;28;20819;-66
2024/02/27 07:41:29;;;;;;;17.10;11.47;;;7.60;99.90;;;;;;5002772;28;20355;-67
2024/02/27 07:43:55;;;;;;;13.87;9.40;;;7.60;99.90;;;;;;5000265;28;20419;-68
2024/02/27 07:46:20;;;;;;;11.88;7.90;;;7.60;99.90;;;;;;5000831;28;20041;-67
2024/02/27 07:48:46;;;;;;;20.97;11.53;;;7.60;99.90;;;;;;4999249;28;20030;-66
2024/02/27 07:51:29;;;;;;;14.03;8.80;;;7.70;99.90;;;;;;4999948;28;20561;-67
2024/02/27 07:53:54;;;;;;;18.20;10.10;;;7.70;99.90;;;;;;4999950;28;20141;-72
2024/02/27 07:56:20;;;;;;;13.80;8.80;;;7.70;99.90;;;;;;5001852;28;20110;-69
2024/02/27 07:58:45;;;;;;;19.33;8.93;;;7.70;99.90;;;;;;4996998;28;20513;-71
2024/02/27 08:01:11;;;;;;;15.90;9.40;;;7.70;99.90;;;;;;5003107;28;20036;-68
2024/02/27 08:03:37;;;;;;;15.30;9.77;;;7.80;99.90;;;;;;4999381;28;20490;-67
2024/02/27 08:06:03;;;;;;;13.43;8.10;;;7.80;99.90;;;;;;4993642;28;20030;-67
2024/02/27 08:08:29;;;;;;;15.38;9.13;;;7.70;99.90;;;;;;5008844;28;20296;-70
2024/02/27 08:10:58;;;;;;;13.03;8.93;;;7.80;99.90;;;;;;4992972;28;20046;-65
2024/02/27 08:13:24;;;;;;;12.57;8.02;;;7.90;99.90;;;;;;5019563;28;20049;-65
2024/02/27 08:15:51;;;;;;;13.65;8.38;;;7.90;99.90;;;;;;4998106;28;20058;-68
2024/02/27 08:18:16;;;;;;;9.93;7.10;;;7.90;99.90;;;;;;5002349;28;20045;-68
2024/02/27 08:20:43;;;;;;;15.93;7.93;;;7.90;99.90;;;;;;5000130;28;20473;-66
2024/02/27 08:23:10;;;;;;;12.95;7.75;;;8.00;99.90;;;;;;4998506;28;20276;-70
2024/02/27 08:25:37;;;;;;;10.88;7.90;;;8.00;99.90;;;;;;4999078;28;20030;-67
2024/02/27 08:28:03;;;;;;;9.73;7.15;;;8.00;99.90;;;;;;4999588;28;20038;-70
2024/02/27 08:30:29;;;;;;;;;;;8.00;99.90;;;;;;4997594;28;20535;-69
2024/02/27 08:32:55;;;;;;;13.77;7.72;;;8.00;99.90;;;;;;4996076;28;19928;-67
2024/02/27 08:35:20;;;;;;;10.67;7.33;;;8.00;99.90;;;;;;4992060;28;20027;-66
2024/02/27 08:37:46;;;;;;;12.27;7.73;;;7.90;99.90;;;;;;4996478;28;20331;-67
2024/02/27 08:40:12;;;;;;;11.63;8.23;;;7.90;99.90;;;;;;5004157;28;20034;-66
2024/02/27 08:42:38;;;;;;;13.35;8.90;;;7.90;99.90;;;;;;4997408;28;20064;-66
2024/02/27 08:45:04;;;;;;;14.32;9.00;;;7.90;99.90;;;;;;5000213;28;20077;-68
2024/02/27 08:47:29;;;;;;;14.88;7.88;;;7.90;99.90;;;;;;5001880;28;20030;-67
2024/02/27 08:49:55;;;;;;;19.87;8.83;;;7.90;99.90;;;;;;4996928;28;20473;-67
2024/02/27 08:52:20;;;;;;;14.37;9.47;;;8.00;99.90;;;;;;4997706;28;20041;-66
2024/02/27 08:54:46;;;;;;;19.40;9.67;;;8.00;99.90;;;;;;4995550;28;20041;-67
2024/02/27 08:57:12;;;;;;;17.53;10.10;;;8.00;99.90;;;;;;5001531;28;20565;-68
2024/02/27 08:59:39;;;;;;;14.60;9.73;;;7.90;99.90;;;;;;4996678;28;20113;-68
2024/02/27 09:02:06;;;;;;;13.70;10.35;;;8.00;99.90;;;;;;4997414;28;20108;-67
2024/02/27 09:04:32;;;;;;;18.00;9.68;;;8.00;99.90;;;;;;4996433;28;20093;-66
2024/02/27 09:06:58;;;;;;;16.35;11.50;;;8.10;99.90;;;;;;5005491;28;20030;-68
2024/02/27 09:09:23;;;;;;;19.80;11.63;;;8.20;99.90;;;;;;4999444;28;20107;-68
2024/02/27 09:11:49;;;;;;;16.63;10.07;;;8.20;99.90;;;;;;4994723;28;20041;-70
2024/02/27 09:14:15;;;;;;;18.50;11.90;;;8.30;99.90;;;;;;4995466;28;20049;-68
2024/02/27 09:16:41;;;;;;;17.00;11.27;;;8.30;99.90;;;;;;4996428;28;20404;-67
2024/02/27 09:19:06;;;;;;;19.23;11.10;;;8.40;99.90;;;;;;4998165;28;20053;-67
2024/02/27 09:21:32;;;;;;;18.40;11.20;;;8.40;99.90;;;;;;4998318;28;20497;-67
2024/02/27 09:23:58;;;;;;;18.25;11.40;;;8.40;99.90;;;;;;4997249;28;20022;-67
2024/02/27 09:26:23;;;;;;;28.90;12.40;;;8.50;99.90;;;;;;4998616;28;20038;-67
2024/02/27 09:28:50;;;;;;;19.50;12.83;;;8.50;99.90;;;;;;4995399;28;20378;-70
2024/02/27 09:31:15;;;;;;;21.60;12.43;;;8.40;99.90;;;;;;5000394;28;20505;-70
2024/02/27 09:33:41;;;;;;;20.40;12.73;;;8.40;99.90;;;;;;5001961;28;20038;-70
2024/02/27 09:36:07;;;;;;;22.63;13.03;;;8.40;99.90;;;;;;4989757;28;20027;-67
2024/02/27 09:38:33;;;;;;;20.42;13.52;;;8.50;99.90;;;;;;4999134;28;20038;-67
2024/02/27 09:41:00;;;;;;;22.20;13.40;;;8.40;99.90;;;;;;4996031;28;20115;-69
2024/02/27 09:43:29;;;;;;;19.05;12.65;;;8.40;99.90;;;;;;4997114;28;20034;-69
2024/02/27 09:46:00;;;;;;;25.52;14.80;;;8.30;99.90;;;;;;4996350;28;20065;-67
2024/02/27 09:48:28;;;;;;;25.00;14.75;;;8.40;99.90;;;;;;4993321;28;20041;-67
2024/02/27 09:50:55;;;;;;;23.98;15.13;;;8.40;99.90;;;;;;4998841;28;20091;-67
2024/02/27 09:53:23;;;;;;;21.60;14.43;;;8.40;99.90;;;;;;4999583;28;20041;-67
2024/02/27 09:55:51;;;;;;;26.88;16.17;;;8.40;99.90;;;;;;4997369;28;20025;-67
2024/02/27 09:58:19;;;;;;;29.98;15.77;;;8.40;99.90;;;;;;4997158;28;20057;-66
2024/02/27 10:00:46;;;;;;;23.92;14.90;;;8.40;99.90;;;;;;4997007;28;20029;-67
2024/02/27 10:03:13;;;;;;;25.80;15.52;;;8.50;99.90;;;;;;4997083;28;20035;-70
2024/02/27 10:05:40;;;;;;;28.25;17.05;;;8.50;99.90;;;;;;4995330;28;20394;-68
2024/02/27 10:08:12;;;;;;;27.33;16.55;;;8.50;99.90;;;;;;4999374;28;20041;-68
2024/02/27 10:10:39;;;;;;;27.33;17.13;;;8.50;99.90;;;;;;4998134;28;20053;-69
2024/02/27 10:13:05;;;;;;;25.10;16.45;;;8.50;99.90;;;;;;4999747;28;20049;-68
2024/02/27 10:15:30;;;;;;;28.73;16.57;;;8.50;99.90;;;;;;4994938;28;20030;-69
2024/02/27 10:17:57;;;;;;;28.23;16.87;;;8.50;99.90;;;;;;5000716;28;20097;-70
2024/02/27 10:20:28;;;;;;;30.27;16.42;;;8.60;99.90;;;;;;5001481;28;20087;-67
2024/02/27 10:22:55;;;;;;;27.38;16.90;;;8.60;99.90;;;;;;4996191;28;20038;-69
2024/02/27 10:25:24;;;;;;;;;;;8.60;99.90;;;;;;4995445;28;20111;-70
2024/02/27 10:27:50;;;;;;;24.70;16.95;;;8.60;99.90;;;;;;4996675;28;19913;-71
2024/02/27 10:30:17;;;;;;;28.02;15.77;;;8.70;99.90;;;;;;4999452;28;20112;-67
2024/02/27 10:32:43;;;;;;;26.05;16.58;;;8.70;99.90;;;;;;4998817;28;20053;-69
2024/02/27 10:35:09;;;;;;;32.08;18.02;;;8.60;99.90;;;;;;4994484;28;20036;-69
2024/02/27 10:37:36;;;;;;;32.47;17.00;;;8.70;99.90;;;;;;4993710;28;20038;-71
2024/02/27 10:40:06;;;;;;;27.50;17.02;;;8.70;99.90;;;;;;4994823;28;20124;-70
2024/02/27 10:42:32;;;;;;;31.40;17.05;;;8.70;99.90;;;;;;5000694;28;20133;-70
2024/02/27 10:44:58;;;;;;;28.27;16.92;;;8.70;99.90;;;;;;4996791;28;20212;-68
2024/02/27 10:47:27;;;;;;;27.15;16.58;;;8.80;99.90;;;;;;4996103;28;20522;-68
2024/02/27 10:49:53;;;;;;;30.42;16.67;;;8.80;99.90;;;;;;4998127;28;20610;-66
2024/02/27 10:52:24;;;;;;;34.55;17.48;;;8.90;99.90;;;;;;4998951;28;20030;-69
2024/02/27 10:54:50;;;;;;;30.52;18.33;;;8.80;99.90;;;;;;4998906;28;20042;-67
2024/02/27 10:57:17;;;;;;;31.00;17.35;;;8.80;99.90;;;;;;4997942;28;20038;-66
2024/02/27 10:59:44;;;;;;;;;;;8.80;99.90;;;;;;4995174;28;20033;-68
2024/02/27 11:02:16;;;;;;;26.50;16.92;;;8.80;99.90;;;;;;5004257;28;19920;-66
2024/02/27 11:04:43;;;;;;;27.80;16.77;;;8.80;99.90;;;;;;4996453;28;20045;-67
2024/02/27 11:07:12;;;;;;;33.60;18.35;;;8.90;99.90;;;;;;4994861;28;20062;-68
2024/02/27 11:09:38;;;;;;;27.42;17.77;;;9.00;99.90;;;;;;4997014;28;20093;-72
2024/02/27 11:12:06;;;;;;;30.67;17.55;;;9.10;99.90;;;;;;4994508;28;20105;-69
2024/02/27 11:14:38;;;;;;;30.23;17.88;;;9.20;99.90;;;;;;5000168;28;20050;-68
2024/02/27 11:17:22;;;;;;;34.13;18.45;;;9.30;99.90;;;;;;4999889;28;20061;-68
2024/02/27 11:19:52;;;;;;;29.98;17.80;;;9.40;99.90;;;;;;5003299;28;20054;-68
2024/02/27 11:22:20;;;;;;;30.88;17.60;;;9.40;99.90;;;;;;5004916;28;20017;-68
2024/02/27 11:24:47;;;;;;;26.83;16.40;;;9.40;99.90;;;;;;5005828;28;20030;-69
2024/02/27 11:27:15;;;;;;;29.45;17.42;;;9.40;99.90;;;;;;4997147;28;20038;-69
2024/02/27 11:29:41;;;;;;;28.33;17.65;;;9.50;99.90;;;;;;5001083;28;20030;-68
2024/02/27 11:32:08;;;;;;;24.88;16.02;;;9.50;99.90;;;;;;5002296;28;20040;-68
2024/02/27 11:34:34;;;;;;;27.30;16.25;;;9.40;99.90;;;;;;5003762;28;20072;-70
2024/02/27 11:37:07;;;;;;;33.13;17.33;;;9.30;99.90;;;;;;4997733;28;20497;-68
2024/02/27 11:39:32;;;;;;;26.02;16.27;;;9.30;99.90;;;;;;5001968;28;20444;-68
2024/02/27 11:41:58;;;;;;;27.67;16.23;;;9.20;99.90;;;;;;5002727;28;20038;-68
2024/02/27 11:44:23;;;;;;;25.60;15.67;;;9.30;99.90;;;;;;4999256;28;20032;-66
2024/02/27 11:46:53;;;;;;;26.43;16.53;;;9.40;99.90;;;;;;5002800;28;20030;-67
2024/02/27 11:49:40;;;;;;;25.52;16.52;;;9.50;99.90;;;;;;4998812;28;20077;-68
2024/02/27 11:52:06;;;;;;;24.33;16.23;;;9.70;99.90;;;;;;4998638;28;20033;-68
2024/02/27 11:54:34;;;;;;;29.20;17.42;;;9.80;99.90;;;;;;5002296;28;20057;-68
2024/02/27 11:57:00;;;;;;;28.77;17.08;;;9.80;99.90;;;;;;4998912;28;20069;-67
2024/02/27 11:59:31;;;;;;;24.80;16.00;;;9.90;99.90;;;;;;5001787;28;20066;-70
2024/02/27 12:02:01;;;;;;;23.85;16.02;;;9.90;99.90;;;;;;4998342;28;20084;-70
2024/02/27 12:04:27;;;;;;;26.83;15.18;;;10.00;99.90;;;;;;5001974;28;20057;-70
2024/02/27 12:06:53;;;;;;;26.95;15.82;;;10.00;99.90;;;;;;5004356;28;20213;-69
2024/02/27 12:09:25;;;;;;;25.03;14.10;;;10.00;99.90;;;;;;5006219;28;20120;-69
2024/02/27 12:11:52;;;;;;;23.40;14.48;;;10.10;99.90;;;;;;5006984;28;20164;-69
2024/02/27 12:14:20;;;;;;;23.60;14.68;;;10.10;99.90;;;;;;5002146;28;20132;-71
2024/02/27 12:16:46;;;;;;;24.65;15.85;;;10.10;99.90;;;;;;4996729;28;20477;-71
2024/02/27 12:19:11;;;;;;;27.70;14.60;;;10.20;99.90;;;;;;4999646;28;20034;-70
2024/02/27 12:21:37;;;;;;;26.07;14.97;;;10.20;99.90;;;;;;4999797;28;20030;-71
2024/02/27 12:24:17;;;;;;;23.27;14.03;;;10.20;99.90;;;;;;5002113;28;20033;-69
2024/02/27 12:26:44;;;;;;;25.83;14.25;;;10.10;99.90;;;;;;4998537;28;20541;-70
2024/02/27 12:29:09;;;;;;;;;;;10.00;99.90;;;;;;4997990;28;20030;-69
2024/02/27 12:31:36;;;;;;;21.00;13.50;;;10.00;99.90;;;;;;4999688;28;19909;-71
2024/02/27 12:34:07;;;;;;;23.42;13.07;;;10.00;99.90;;;;;;4999816;28;20038;-69
2024/02/27 12:36:33;;;;;;;25.08;13.80;;;9.90;99.90;;;;;;4991732;28;20034;-70
2024/02/27 12:38:59;;;;;;;;;;;9.90;99.90;;;;;;4998059;28;20852;-69
2024/02/27 12:41:25;;;;;;;19.65;13.00;;;9.90;99.90;;;;;;4998227;28;19917;-71
2024/02/27 12:43:52;;;;;;;19.98;12.27;;;9.80;99.90;;;;;;4997524;28;20062;-70
2024/02/27 12:46:18;;;;;;;;;;;9.80;99.90;;;;;;4998706;28;20030;-71
2024/02/27 12:48:44;;;;;;;27.33;14.23;;;9.80;99.90;;;;;;5000034;28;19916;-70